Time;durP1;ratioP1;P1;durP2;ratioP2;P2;SDS_P1;SDS_P2;PMS_P1;PMS_P2;Temp;Humidity;BMP_temperature;BMP_pressure;BME280_temperature;BME280_humidity;BME280_pressure;Samples;Min_cycle;Max_cycle;Signal;HPM_P1;HPM_P2
2022/11/06 00:00:18;;;;;;;11.70;3.10;;;;;;;4.69;100.00;100067.20;105819;1291;59347;-75
2022/11/06 00:03:07;;;;;;;11.30;3.70;;;;;;;4.69;100.00;100067.61;106025;1290;59107;-76
2022/11/06 00:09:08;;;;;;;8.30;2.70;;;;;;;4.68;100.00;100062.53;106020;1290;67755;-74
2022/11/06 00:11:56;;;;;;;8.90;2.70;;;;;;;4.67;100.00;100065.58;105956;1292;72691;-74
2022/11/06 00:14:44;;;;;;;8.80;3.00;;;;;;;4.64;100.00;100064.50;106025;1283;58830;-75
2022/11/06 00:17:35;;;;;;;14.30;3.40;;;;;;;4.60;100.00;100067.88;106013;1290;59778;-75
2022/11/06 00:20:24;;;;;;;14.40;3.20;;;;;;;4.57;100.00;100065.41;106044;1290;71208;-75
2022/11/06 00:23:11;;;;;;;8.30;3.10;;;;;;;4.55;100.00;100073.42;106024;1290;66261;-75
2022/11/06 00:25:59;;;;;;;9.20;3.00;;;;;;;4.53;100.00;100078.45;106017;1291;71368;-75
2022/11/06 00:28:48;;;;;;;11.40;3.30;;;;;;;4.51;100.00;100078.56;106020;1295;57871;-75
2022/11/06 00:31:36;;;;;;;11.00;3.70;;;;;;;4.49;100.00;100078.84;106000;1291;61673;-75
2022/11/06 00:34:35;;;;;;;13.50;3.20;;;;;;;4.47;100.00;100079.95;105812;1292;73160;-75
2022/11/06 00:37:37;;;;;;;;;;;;;;;;;;;;;
2022/11/06 00:41:15;;;;;;;11.00;2.80;;;;;;;4.40;100.00;100073.45;105899;1291;72622;-73
2022/11/06 00:44:12;;;;;;;8.60;2.90;;;;;;;4.35;100.00;100068.50;105680;1291;60300;-73
2022/11/06 00:47:04;;;;;;;10.50;3.20;;;;;;;4.33;100.00;100063.30;105751;1292;60311;-74
2022/11/06 00:49:55;;;;;;;11.60;3.00;;;;;;;4.33;100.00;100066.30;105770;1280;74125;-75
2022/11/06 00:53:02;;;;;;;9.60;2.70;;;;;;;4.32;100.00;100071.98;106064;1299;67766;-74
2022/11/06 00:56:19;;;;;;;9.40;3.00;;;;;;;4.30;100.00;100068.39;105880;1293;73909;-74
2022/11/06 00:59:24;;;;;;;10.40;3.00;;;;;;;4.29;100.00;100069.13;105581;1292;59806;-77
2022/11/06 01:02:11;;;;;;;10.60;3.10;;;;;;;4.29;100.00;100064.39;105953;1283;59367;-76
2022/11/06 01:04:59;;;;;;;11.10;3.00;;;;;;;4.29;100.00;100062.49;106025;1292;73413;-76
2022/11/06 01:07:47;;;;;;;13.30;2.90;;;;;;;4.29;100.00;100066.48;106045;1291;67860;-77
2022/11/06 01:10:36;;;;;;;11.80;3.40;;;;;;;4.30;100.00;100073.84;106010;1290;72665;-75
2022/11/06 01:13:24;;;;;;;11.70;3.40;;;;;;;4.30;100.00;100071.55;106021;1292;57207;-75
2022/11/06 01:16:14;;;;;;;8.90;3.20;;;;;;;4.29;100.00;100067.24;105967;1288;61125;-75
2022/11/06 01:19:02;;;;;;;9.00;3.00;;;;;;;4.25;100.00;100065.09;106052;1292;70955;-75
2022/11/06 01:21:52;;;;;;;10.20;3.60;;;;;;;4.23;100.00;100064.50;105985;1290;68726;-77
2022/11/06 01:24:40;;;;;;;9.40;3.30;;;;;;;4.23;100.00;100068.21;105793;1295;73846;-76
2022/11/06 01:27:28;;;;;;;8.90;3.20;;;;;;;4.21;100.00;100063.73;105995;1291;59771;-76
2022/11/06 01:30:17;;;;;;;11.80;3.30;;;;;;;4.20;100.00;100062.74;106022;1290;60358;-77
2022/11/06 01:33:05;;;;;;;16.00;3.70;;;;;;;4.19;100.00;100067.00;106003;1284;73264;-78
2022/11/06 01:35:53;;;;;;;10.60;3.00;;;;;;;4.19;100.00;100063.31;105985;1290;67758;-78
2022/11/06 01:38:44;;;;;;;10.00;3.50;;;;;;;4.17;100.00;100058.33;106036;1292;71056;-77
2022/11/06 01:41:41;;;;;;;9.70;3.20;;;;;;;4.18;100.00;100058.48;106038;1283;58257;-78
2022/11/06 01:44:35;;;;;;;9.30;3.60;;;;;;;4.19;100.00;100063.52;105952;1292;60053;-76
2022/11/06 01:47:26;;;;;;;9.40;3.10;;;;;;;4.19;100.00;100067.54;105991;1284;73265;-76
2022/11/06 01:50:17;;;;;;;9.70;3.40;;;;;;;4.18;100.00;100062.86;105936;1298;69416;-76
2022/11/06 01:53:04;;;;;;;9.60;3.20;;;;;;;4.18;100.00;100059.17;105954;1291;73782;-76
2022/11/06 01:55:57;;;;;;;9.90;3.50;;;;;;;4.17;100.00;100063.23;105991;1284;58695;-76
2022/11/06 01:58:50;;;;;;;10.80;4.10;;;;;;;4.16;100.00;100061.72;105985;1282;60678;-77
2022/11/06 02:01:38;;;;;;;10.80;3.40;;;;;;;4.16;100.00;100060.52;106014;1291;71431;-76
2022/11/06 02:04:37;;;;;;;15.10;3.80;;;;;;;4.14;100.00;100064.44;105994;1285;67821;-77
2022/11/06 02:07:25;;;;;;;8.90;3.00;;;;;;;4.14;100.00;100066.55;106000;1290;72802;-77
2022/11/06 02:10:13;;;;;;;8.80;3.20;;;;;;;4.15;100.00;100068.65;106004;1290;59622;-77
2022/11/06 02:13:31;;;;;;;11.10;3.30;;;;;;;4.14;100.00;100072.55;105915;1290;61237;-75
2022/11/06 02:16:44;;;;;;;8.00;2.60;;;;;;;4.14;100.00;100069.75;106009;1282;73471;-74
2022/11/06 02:20:41;;;;;;;8.80;3.20;;;;;;;4.11;100.00;100065.33;106027;1290;67551;-74
2022/11/06 02:23:56;;;;;;;10.00;3.00;;;;;;;4.04;100.00;100064.59;105957;1291;71445;-74
2022/11/06 02:27:01;;;;;;;10.50;3.50;;;;;;;4.00;100.00;100062.89;105967;1291;60021;-74
2022/11/06 02:30:06;;;;;;;10.50;3.80;;;;;;;3.96;100.00;100058.68;105996;1292;60056;-75
2022/11/06 02:33:05;;;;;;;11.20;3.90;;;;;;;3.92;100.00;100054.81;105903;1290;72235;-74
2022/11/06 02:36:06;;;;;;;11.10;3.40;;;;;;;3.89;100.00;100057.96;105923;1291;69543;-74
2022/11/06 02:39:00;;;;;;;12.10;3.90;;;;;;;3.85;100.00;100057.64;105945;1292;71360;-73
2022/11/06 02:41:50;;;;;;;11.10;3.80;;;;;;;3.81;100.00;100053.83;105860;1289;60830;-74
2022/11/06 02:44:39;;;;;;;9.60;3.50;;;;;;;3.77;100.00;100052.27;105925;1291;60435;-74
2022/11/06 02:47:31;;;;;;;9.00;3.10;;;;;;;3.73;100.00;100050.33;105933;1291;73529;-74
2022/11/06 02:50:44;;;;;;;9.60;3.20;;;;;;;3.71;100.00;100052.02;105930;1285;68081;-74
2022/11/06 02:53:32;;;;;;;11.70;4.10;;;;;;;3.69;100.00;100055.13;105962;1292;74206;-74
2022/11/06 02:56:25;;;;;;;13.90;4.20;;;;;;;3.67;100.00;100055.58;105925;1292;59716;-75
2022/11/06 02:59:40;;;;;;;11.50;3.90;;;;;;;3.65;100.00;100049.16;105933;1291;60766;-76
2022/11/06 03:02:36;;;;;;;14.80;4.20;;;;;;;3.65;100.00;100049.35;105952;1291;72533;-75
2022/11/06 03:05:34;;;;;;;14.70;3.80;;;;;;;3.66;100.00;100046.86;105936;1284;69118;-74
2022/11/06 03:08:53;;;;;;;10.50;3.50;;;;;;;3.66;100.00;100042.99;105988;1290;73872;-74
2022/11/06 03:11:40;;;;;;;12.10;4.10;;;;;;;3.67;100.00;100036.27;105996;1290;59800;-75
2022/11/06 03:14:48;;;;;;;10.50;3.20;;;;;;;3.67;100.00;100036.27;105918;1291;60134;-75
2022/11/06 03:18:09;;;;;;;12.10;3.60;;;;;;;3.65;100.00;100036.18;105956;1291;71134;-75
2022/11/06 03:21:06;;;;;;;10.30;6.70;;;;;;;3.64;100.00;100032.54;106000;1284;66726;-75
2022/11/06 03:24:03;;;;;;;9.70;3.40;;;;;;;3.64;100.00;100035.88;106013;1291;71282;-73
2022/11/06 03:26:52;;;;;;;12.80;4.00;;;;;;;3.64;100.00;100036.08;105944;1284;59597;-74
2022/11/06 03:30:03;;;;;;;10.20;3.40;;;;;;;3.63;100.00;100036.26;105918;1290;60388;-76
2022/11/06 03:33:19;;;;;;;9.30;3.40;;;;;;;3.62;100.00;100046.16;106013;1291;70955;-78
2022/11/06 03:36:23;;;;;;;10.20;3.00;;;;;;;3.61;100.00;100043.61;105781;1292;66672;-78
2022/11/06 03:39:19;;;;;;;10.80;3.30;;;;;;;3.58;100.00;100043.89;105943;1291;73925;-75
2022/11/06 03:42:16;;;;;;;11.10;3.30;;;;;;;3.54;100.00;100045.11;105939;1284;58537;-77
2022/11/06 03:45:10;;;;;;;14.10;4.10;;;;;;;3.51;100.00;100048.95;105939;1284;61155;-75
2022/11/06 03:48:10;;;;;;;11.10;3.80;;;;;;;3.47;100.00;100051.43;105912;1290;71824;-76
2022/11/06 03:51:13;;;;;;;11.80;3.70;;;;;;;3.44;100.00;100052.11;105993;1292;68822;-77
2022/11/06 03:54:12;;;;;;;12.50;4.00;;;;;;;3.40;100.00;100056.64;106011;1291;71046;-75
2022/11/06 03:57:26;;;;;;;10.40;3.80;;;;;;;3.36;100.00;100059.00;105930;1293;58634;-74
2022/11/06 04:00:16;;;;;;;10.60;4.50;;;;;;;3.31;100.00;100063.05;105968;1290;57992;-74
2022/11/06 04:03:16;;;;;;;8.90;3.70;;;;;;;3.28;100.00;100060.05;106009;1284;69581;-77
2022/11/06 04:06:15;;;;;;;12.70;3.80;;;;;;;3.25;100.00;100060.55;105894;1290;67765;-77
2022/11/06 04:15:34;;;;;;;13.30;4.40;;;;;;;3.14;100.00;100054.41;105980;1284;60463;-75
2022/11/06 04:18:22;;;;;;;11.40;4.90;;;;;;;3.12;100.00;100052.57;105948;1292;70621;-75
2022/11/06 04:21:53;;;;;;;9.60;4.00;;;;;;;3.10;100.00;100049.70;106008;1290;66739;-75
2022/11/06 04:28:26;;;;;;;13.10;4.60;;;;;;;3.04;100.00;100047.15;106003;1283;58789;-75
2022/11/06 04:31:20;;;;;;;14.40;5.00;;;;;;;3.03;100.00;100044.07;105957;1298;60513;-75
2022/11/06 04:34:52;;;;;;;11.60;4.40;;;;;;;3.02;100.00;100049.54;105953;1290;72023;-75
2022/11/06 04:37:56;;;;;;;9.60;3.50;;;;;;;3.01;100.00;100049.25;105989;1291;69118;-75
2022/11/06 04:40:52;;;;;;;11.30;4.20;;;;;;;2.97;100.00;100053.61;105902;1292;74049;-75
2022/11/06 04:43:59;;;;;;;14.00;5.20;;;;;;;2.94;100.00;100047.28;105997;1284;59608;-74
2022/11/06 04:47:01;;;;;;;12.30;4.00;;;;;;;2.91;100.00;100048.64;105905;1292;60571;-76
2022/11/06 04:49:52;;;;;;;10.70;4.80;;;;;;;2.89;100.00;100048.37;105912;1291;70677;-76
2022/11/06 04:52:43;;;;;;;7.80;3.30;;;;;;;2.88;100.00;100047.02;105996;1284;68686;-76
2022/11/06 04:55:30;;;;;;;12.00;4.50;;;;;;;2.87;100.00;100043.03;105899;1292;73863;-75
2022/11/06 04:58:18;;;;;;;11.60;4.70;;;;;;;2.86;100.00;100040.81;105985;1284;58671;-76
2022/11/06 05:01:07;;;;;;;14.90;4.20;;;;;;;2.84;100.00;100040.72;105916;1291;58590;-75
2022/11/06 05:03:55;;;;;;;9.20;4.00;;;;;;;2.83;100.00;100042.54;105980;1290;71965;-74
2022/11/06 05:06:43;;;;;;;11.20;4.40;;;;;;;2.80;100.00;100046.33;105938;1285;67903;-76
2022/11/06 05:09:31;;;;;;;10.20;4.10;;;;;;;2.77;100.00;100047.02;105976;1290;72377;-76
2022/11/06 05:12:20;;;;;;;12.30;4.60;;;;;;;2.72;100.00;100045.45;105949;1291;60108;-75
2022/11/06 05:15:08;;;;;;;9.40;4.20;;;;;;;2.68;100.00;100043.73;105991;1292;60455;-76
2022/11/06 05:17:57;;;;;;;13.70;5.40;;;;;;;2.65;100.00;100048.24;105976;1284;72645;-76
2022/11/06 05:20:45;;;;;;;11.70;4.50;;;;;;;2.62;100.00;100054.52;105912;1291;66696;-75
2022/11/06 05:23:33;;;;;;;10.70;4.80;;;;;;;2.58;100.00;100055.39;105888;1292;73712;-76
2022/11/06 05:26:21;;;;;;;14.00;4.50;;;;;;;2.54;100.00;100056.93;105961;1299;60037;-75
2022/11/06 05:29:11;;;;;;;11.00;5.20;;;;;;;2.52;100.00;100057.92;105973;1284;60539;-74
2022/11/06 05:31:59;;;;;;;11.90;4.80;;;;;;;2.50;100.00;100058.17;105860;1292;70871;-74
2022/11/06 05:34:47;;;;;;;13.10;5.60;;;;;;;2.46;100.00;100062.40;105917;1287;68220;-75
2022/11/06 05:37:34;;;;;;;14.10;5.20;;;;;;;2.41;100.00;100067.03;105930;1291;73818;-74
2022/11/06 05:40:22;;;;;;;11.20;4.60;;;;;;;2.36;100.00;100063.02;105966;1289;60299;-74
2022/11/06 05:43:09;;;;;;;13.30;5.50;;;;;;;2.32;100.00;100063.51;105989;1282;59021;-73
2022/11/06 05:45:59;;;;;;;11.70;4.40;;;;;;;2.30;100.00;100066.94;105842;1284;201758;-75
2022/11/06 05:48:47;;;;;;;13.80;5.70;;;;;;;2.28;100.00;100065.66;105989;1284;69090;-74
2022/11/06 05:51:35;;;;;;;11.10;5.70;;;;;;;2.25;100.00;100065.77;105968;1283;73849;-75
2022/11/06 05:54:24;;;;;;;14.50;6.70;;;;;;;2.22;100.00;100065.53;105962;1291;58099;-73
2022/11/06 05:57:12;;;;;;;11.90;5.60;;;;;;;2.21;100.00;100067.84;106002;1291;58816;-76
2022/11/06 06:00:00;;;;;;;13.80;6.30;;;;;;;2.19;100.00;100068.12;105960;1284;73465;-76
2022/11/06 06:02:48;;;;;;;13.00;5.90;;;;;;;2.17;100.00;100073.81;105979;1291;67862;-77
2022/11/06 06:05:35;;;;;;;14.10;6.90;;;;;;;2.14;100.00;100078.65;105890;1291;72686;-78
2022/11/06 06:08:23;;;;;;;13.70;6.70;;;;;;;2.13;100.00;100076.09;105915;1284;58858;-78
2022/11/06 06:11:11;;;;;;;14.30;6.90;;;;;;;2.13;100.00;100079.91;105981;1284;61731;-78
2022/11/06 06:13:59;;;;;;;13.30;7.60;;;;;;;2.14;100.00;100080.93;105975;1290;73535;-77
2022/11/06 06:16:47;;;;;;;16.70;7.40;;;;;;;2.17;100.00;100080.27;106002;1284;66606;-77
2022/11/06 06:19:35;;;;;;;16.20;7.80;;;;;;;2.19;100.00;100080.54;105907;1291;73705;-77
2022/11/06 06:22:23;;;;;;;16.20;8.00;;;;;;;2.22;100.00;100080.78;105975;1275;57501;-78
2022/11/06 06:25:11;;;;;;;14.80;7.60;;;;;;;2.25;100.00;100080.29;105246;1284;1002150;-77
2022/11/06 06:28:09;;;;;;;16.10;8.40;;;;;;;2.27;100.00;100084.75;105968;1291;70779;-77
2022/11/06 06:30:57;;;;;;;15.10;8.10;;;;;;;2.27;100.00;100085.30;105989;1290;68882;-77
2022/11/06 06:33:52;;;;;;;15.50;7.50;;;;;;;2.28;100.00;100084.87;105987;1291;73942;-76
2022/11/06 06:36:40;;;;;;;17.00;7.50;;;;;;;2.32;100.00;100083.66;105951;1292;58667;-77
2022/11/06 06:39:29;;;;;;;15.30;8.10;;;;;;;2.37;100.00;100081.54;106005;1292;60050;-78
2022/11/06 06:42:17;;;;;;;13.90;6.60;;;;;;;2.43;100.00;100082.30;105991;1282;72008;-77
2022/11/06 06:45:05;;;;;;;18.20;8.80;;;;;;;2.49;100.00;100079.95;105989;1291;67612;-77
2022/11/06 06:47:53;;;;;;;17.90;9.00;;;;;;;2.57;100.00;100075.05;105979;1284;74088;-76
2022/11/06 06:50:41;;;;;;;15.90;9.20;;;;;;;2.70;100.00;100080.77;105999;1291;57087;-76
2022/11/06 06:53:30;;;;;;;14.50;7.60;;;;;;;2.81;100.00;100083.79;106002;1291;60383;-77
2022/11/06 06:56:17;;;;;;;14.60;7.40;;;;;;;2.90;100.00;100086.70;106014;1284;70964;-77
2022/11/06 06:59:06;;;;;;;18.70;9.00;;;;;;;2.96;100.00;100086.27;105949;1292;66763;-76
2022/11/06 07:01:55;;;;;;;16.20;8.80;;;;;;;3.00;100.00;100086.43;106025;1291;71242;-77
2022/11/06 07:04:42;;;;;;;15.60;8.20;;;;;;;3.04;100.00;100083.78;105971;1291;58900;-76
2022/11/06 07:07:31;;;;;;;20.60;9.30;;;;;;;3.07;100.00;100089.27;105965;1283;61526;-76
2022/11/06 07:10:21;;;;;;;16.50;8.30;;;;;;;3.12;100.00;100090.65;105940;1292;72096;-76
2022/11/06 07:13:10;;;;;;;15.30;7.80;;;;;;;3.17;100.00;100092.31;106007;1291;66712;-76
2022/11/06 07:16:01;;;;;;;15.10;7.90;;;;;;;3.26;100.00;100087.71;105966;1284;74175;-76
2022/11/06 07:18:48;;;;;;;15.70;7.70;;;;;;;3.33;100.00;100088.91;105961;1291;59485;-77
2022/11/06 07:21:36;;;;;;;13.50;7.30;;;;;;;3.42;100.00;100092.73;105963;1291;60098;-78
2022/11/06 07:24:24;;;;;;;16.00;8.70;;;;;;;3.51;100.00;100092.64;105935;1289;73541;-76
2022/11/06 07:27:15;;;;;;;17.10;8.40;;;;;;;3.61;100.00;100093.05;105966;1284;67673;-76
2022/11/06 07:30:03;;;;;;;16.30;8.20;;;;;;;3.65;100.00;100093.91;105972;1291;73917;-77
2022/11/06 07:32:51;;;;;;;13.20;7.90;;;;;;;3.69;100.00;100094.77;105943;1290;57976;-77
2022/11/06 07:35:40;;;;;;;17.50;8.00;;;;;;;3.83;100.00;100093.91;105924;1284;60017;-77
2022/11/06 07:38:28;;;;;;;17.10;8.30;;;;;;;4.00;100.00;100093.63;105983;1290;70792;-79
2022/11/06 07:41:16;;;;;;;17.50;8.30;;;;;;;4.16;100.00;100090.71;105997;1290;67837;-78
2022/11/06 07:44:04;;;;;;;13.50;7.10;;;;;;;4.33;100.00;100092.98;105926;1284;72746;-77
2022/11/06 07:46:52;;;;;;;16.00;8.10;;;;;;;4.57;99.84;100097.94;105944;1291;60866;-76
2022/11/06 07:49:39;;;;;;;15.20;8.70;;;;;;;4.89;99.13;100096.92;105991;1284;57738;-78
2022/11/06 07:52:29;;;;;;;19.30;8.80;;;;;;;5.28;96.80;100093.79;105998;1268;70967;-77
2022/11/06 07:55:17;;;;;;;20.10;8.60;;;;;;;5.72;94.67;100091.33;105970;1290;67968;-77
2022/11/06 07:58:05;;;;;;;24.10;8.90;;;;;;;6.32;92.74;100087.19;105929;1290;73756;-76
2022/11/06 08:00:56;;;;;;;24.70;9.60;;;;;;;7.17;87.49;100081.05;105898;1298;59684;-77
2022/11/06 08:03:45;;;;;;;24.90;9.50;;;;;;;8.92;84.89;100076.52;105914;1290;60203;-76
2022/11/06 08:06:43;;;;;;;25.00;9.80;;;;;;;10.85;79.16;100065.98;105902;1290;72287;-77
2022/11/06 08:09:31;;;;;;;20.80;9.80;;;;;;;12.37;73.43;100068.90;105882;1291;69008;-76
2022/11/06 08:12:19;;;;;;;30.10;10.10;;;;;;;13.66;64.07;100065.52;105885;1290;72933;-77
2022/11/06 08:15:07;;;;;;;26.20;9.70;;;;;;;14.68;61.04;100063.84;105992;1290;57981;-77
2022/11/06 08:17:58;;;;;;;25.20;8.80;;;;;;;15.74;59.45;100063.42;105939;1283;59422;-77
2022/11/06 08:20:46;;;;;;;23.70;8.10;;;;;;;16.70;53.98;100065.34;105992;1291;73310;-79
2022/11/06 08:23:34;;;;;;;20.40;7.40;;;;;;;17.10;48.26;100062.11;105957;1292;67714;-77
2022/11/06 08:26:23;;;;;;;19.90;7.90;;;;;;;17.55;46.93;100058.08;105817;1291;71345;-79
2022/11/06 08:29:10;;;;;;;12.90;6.20;;;;;;;17.61;45.01;100061.83;105949;1291;56850;-75
2022/11/06 08:31:58;;;;;;;13.80;6.40;;;;;;;17.33;44.12;100063.53;105895;1287;58895;-78
2022/11/06 08:34:46;;;;;;;12.60;6.30;;;;;;;17.78;44.31;100066.46;106001;1284;71077;-78
2022/11/06 08:37:35;;;;;;;11.10;5.60;;;;;;;17.93;42.61;100065.39;105944;1291;68047;-76
2022/11/06 08:40:23;;;;;;;11.40;5.50;;;;;;;17.92;42.85;100065.11;105890;1291;72240;-76
2022/11/06 08:43:17;;;;;;;10.90;5.30;;;;;;;18.28;42.29;100066.40;105845;1291;58099;-77
2022/11/06 08:46:07;;;;;;;10.90;5.10;;;;;;;18.71;42.14;100064.76;105944;1291;61497;-77
2022/11/06 08:48:57;;;;;;;17.10;5.40;;;;;;;18.95;40.61;100064.88;105861;1295;71144;-77
2022/11/06 08:51:45;;;;;;;12.10;5.20;;;;;;;19.22;40.07;100066.35;105908;1290;69068;-79
2022/11/06 08:54:36;;;;;;;20.40;6.50;;;;;;;19.25;38.74;100062.63;105830;1292;70607;-76
2022/11/06 08:57:27;;;;;;;16.70;5.30;;;;;;;19.21;39.43;100061.27;105887;1292;57192;-78
2022/11/06 09:00:17;;;;;;;24.80;6.30;;;;;;;19.10;38.90;100066.30;105944;1291;58808;-77
2022/11/06 09:03:12;;;;;;;25.30;6.60;;;;;;;19.39;39.60;100061.23;105919;1290;70478;-76
2022/11/06 09:06:00;;;;;;;18.80;6.10;;;;;;;20.12;39.03;100065.56;105919;1291;66377;-77
2022/11/06 09:08:47;;;;;;;23.30;6.00;;;;;;;20.76;37.26;100062.61;105864;1283;70919;-79
2022/11/06 09:11:43;;;;;;;15.80;5.30;;;;;;;20.71;36.27;100059.28;105916;1292;58226;-77
2022/11/06 09:14:34;;;;;;;15.50;5.60;;;;;;;20.90;35.71;100058.96;105934;1292;60377;-76
2022/11/06 09:17:23;;;;;;;13.10;5.10;;;;;;;20.77;35.72;100062.77;105743;1291;72258;-76
2022/11/06 09:20:12;;;;;;;13.80;4.90;;;;;;;20.62;35.58;100065.14;105876;1294;66490;-78
2022/11/06 09:23:05;;;;;;;11.20;4.80;;;;;;;20.98;35.84;100058.17;105779;1292;72353;-77
2022/11/06 09:25:53;;;;;;;11.60;4.10;;;;;;;21.61;35.07;100047.92;105755;1291;57432;-78
2022/11/06 09:28:43;;;;;;;10.10;4.50;;;;;;;21.94;33.64;100044.70;105919;1290;60182;-76
2022/11/06 09:31:31;;;;;;;9.70;4.60;;;;;;;21.91;33.16;100041.22;105905;1285;72727;-76
2022/11/06 09:34:19;;;;;;;10.20;4.70;;;;;;;22.08;32.73;100039.54;105880;1291;66510;-77
2022/11/06 09:37:07;;;;;;;9.40;4.20;;;;;;;21.85;32.59;100032.67;105814;1286;72631;-76
2022/11/06 09:39:56;;;;;;;9.90;4.00;;;;;;;22.27;32.92;100031.77;105917;1292;57987;-76
2022/11/06 09:43:20;;;;;;;9.70;3.50;;;;;;;22.39;31.61;100027.63;106014;1290;59003;-76
2022/11/06 09:46:41;;;;;;;7.80;3.70;;;;;;;23.04;30.95;100018.95;105482;1297;73329;-76
2022/11/06 09:49:40;;;;;;;7.90;2.90;;;;;;;23.06;30.27;100018.25;105416;1297;66916;-76
2022/11/06 09:53:15;;;;;;;9.10;3.00;;;;;;;22.88;30.35;100016.65;105401;1292;72903;-77
2022/11/06 09:56:09;;;;;;;7.60;3.00;;;;;;;22.76;30.23;100017.84;105389;1299;57199;-76
2022/11/06 09:59:00;;;;;;;7.90;2.40;;;;;;;23.00;29.96;100002.05;105374;1300;59192;-77
2022/11/06 10:01:54;;;;;;;6.50;2.40;;;;;;;23.57;29.45;100005.22;105402;1298;72482;-76
2022/11/06 10:04:58;;;;;;;9.40;2.20;;;;;;;23.13;29.89;100003.21;105254;1300;69126;-75
2022/11/06 10:07:49;;;;;;;9.00;2.90;;;;;;;22.63;30.08;100005.39;105281;1298;71784;-76
2022/11/06 10:11:05;;;;;;;10.00;2.60;;;;;;;22.15;30.96;100014.32;105318;1299;57059;-76
2022/11/06 10:14:30;;;;;;;8.20;3.20;;;;;;;22.09;31.47;100009.91;105300;1296;58775;-75
2022/11/06 10:17:50;;;;;;;7.90;2.80;;;;;;;22.02;31.84;100007.59;105421;1298;72453;-76
2022/11/06 10:20:51;;;;;;;9.30;2.70;;;;;;;21.62;31.88;100000.36;105208;1298;67837;-75
2022/11/06 10:24:03;;;;;;;8.10;2.80;;;;;;;21.54;32.31;99998.48;105563;1290;73939;-76
2022/11/06 10:26:55;;;;;;;8.00;3.00;;;;;;;21.41;32.62;100002.05;105868;1290;56790;-77
2022/11/06 10:30:05;;;;;;;9.50;3.00;;;;;;;21.81;32.13;99999.95;105776;1292;59291;-76
2022/11/06 10:33:28;;;;;;;9.40;3.20;;;;;;;20.76;33.29;100009.48;105899;1292;72174;-78
2022/11/06 10:36:30;;;;;;;10.60;2.80;;;;;;;20.86;33.53;100005.25;105924;1291;69226;-77
2022/11/06 10:39:25;;;;;;;12.00;3.10;;;;;;;20.85;33.42;100007.68;105924;1274;71478;-77
2022/11/06 10:42:21;;;;;;;11.90;3.40;;;;;;;20.75;33.54;99994.58;105876;1292;59203;-75
2022/11/06 10:45:15;;;;;;;12.90;3.50;;;;;;;20.83;33.47;99991.84;106012;1291;59149;-76
2022/11/06 10:48:39;;;;;;;12.00;3.50;;;;;;;21.01;33.54;99987.42;105919;1292;73069;-75
2022/11/06 10:51:51;;;;;;;11.80;3.80;;;;;;;21.38;33.56;99987.55;105929;1290;67678;-77
2022/11/06 10:55:40;;;;;;;16.10;4.10;;;;;;;21.03;33.32;99983.60;105731;1292;72660;-76
2022/11/06 10:58:32;;;;;;;11.50;4.70;;;;;;;20.81;34.29;99979.30;105964;1297;58194;-75
2022/11/06 11:01:22;;;;;;;10.00;3.20;;;;;;;21.28;33.44;99966.95;105978;1291;59086;-76
2022/11/06 11:04:10;;;;;;;9.30;3.20;;;;;;;20.66;33.84;99962.92;105923;1292;70727;-73
2022/11/06 11:07:13;;;;;;;8.90;3.80;;;;;;;20.63;34.06;99960.50;106015;1292;67543;-76
2022/11/06 11:10:26;;;;;;;8.30;3.50;;;;;;;20.66;34.13;99955.67;105934;1291;72331;-76
2022/11/06 11:13:20;;;;;;;10.00;3.60;;;;;;;20.52;34.32;99953.75;105991;1287;56749;-75
2022/11/06 11:16:27;;;;;;;11.90;3.60;;;;;;;20.46;34.23;99944.59;105860;1292;58742;-74
2022/11/06 11:19:40;;;;;;;14.80;4.30;;;;;;;20.52;34.35;99937.39;105973;1291;70516;-75
2022/11/06 11:22:28;;;;;;;10.40;3.70;;;;;;;19.93;35.10;99943.46;105916;1291;65929;-76
2022/11/06 11:25:24;;;;;;;10.00;3.40;;;;;;;19.70;35.78;99944.95;105995;1291;72344;-75
2022/11/06 11:28:35;;;;;;;8.10;2.80;;;;;;;19.33;36.57;99943.50;105961;1296;58092;-76
2022/11/06 11:31:29;;;;;;;9.10;3.10;;;;;;;18.61;38.01;99937.91;105987;1290;60458;-75
2022/11/06 11:34:25;;;;;;;8.10;2.60;;;;;;;18.56;38.25;99943.52;105899;1291;73410;-75
2022/11/06 11:37:32;;;;;;;11.00;3.20;;;;;;;18.11;38.87;99943.45;105801;1295;69155;-77
2022/11/06 11:40:22;;;;;;;12.20;3.50;;;;;;;17.50;40.02;99937.54;105883;1291;73141;-75
2022/11/06 11:43:29;;;;;;;10.10;3.00;;;;;;;17.20;40.81;99932.20;105995;1291;56966;-75
2022/11/06 11:46:19;;;;;;;11.00;3.20;;;;;;;17.27;41.23;99927.00;105787;1293;61137;-75
2022/11/06 11:49:28;;;;;;;12.30;4.30;;;;;;;17.21;41.23;99920.16;105980;1291;70656;-76
2022/11/06 11:52:21;;;;;;;10.60;4.40;;;;;;;17.01;41.86;99922.86;105933;1292;68718;-75
2022/11/06 11:55:46;;;;;;;9.30;3.50;;;;;;;16.82;42.33;99914.91;105900;1292;72867;-75
2022/11/06 11:58:36;;;;;;;8.00;3.20;;;;;;;16.71;42.55;99913.88;105981;1292;57680;-75
2022/11/06 12:01:52;;;;;;;9.20;3.10;;;;;;;16.27;43.28;99916.00;105920;1290;60514;-75
2022/11/06 12:04:45;;;;;;;9.20;3.20;;;;;;;15.76;44.72;99914.77;105964;1281;72490;-76
2022/11/06 12:07:37;;;;;;;11.70;3.90;;;;;;;15.75;45.04;99923.85;105905;1290;67072;-75
2022/11/06 12:10:43;;;;;;;11.20;3.50;;;;;;;15.53;45.51;99927.62;105790;1295;71044;-76
2022/11/06 12:13:31;;;;;;;12.70;3.80;;;;;;;15.16;46.22;99924.88;105945;1281;58070;-75
2022/11/06 12:16:19;;;;;;;10.50;3.70;;;;;;;15.13;46.63;99924.09;105835;1290;61587;-77
2022/11/06 12:19:08;;;;;;;9.90;3.40;;;;;;;14.98;47.18;99919.83;105901;1288;71953;-77
2022/11/06 12:22:09;;;;;;;9.40;3.20;;;;;;;14.66;48.07;99911.36;105988;1284;67962;-77
2022/11/06 12:25:35;;;;;;;9.50;3.90;;;;;;;14.35;48.62;99910.57;105891;1290;72744;-75
2022/11/06 12:28:24;;;;;;;8.30;3.30;;;;;;;13.92;50.13;99902.27;105924;1290;56972;-77
2022/11/06 12:31:40;;;;;;;7.60;2.90;;;;;;;13.70;50.83;99905.30;105948;1288;61165;-77
2022/11/06 12:34:52;;;;;;;9.00;3.50;;;;;;;13.61;51.32;99899.85;105896;1290;72531;-76
2022/11/06 12:38:09;;;;;;;10.20;3.40;;;;;;;13.56;51.82;99900.69;105850;1295;67611;-76
2022/11/06 12:41:25;;;;;;;10.10;3.50;;;;;;;13.37;52.52;99902.98;105887;1291;73710;-77
2022/11/06 12:44:15;;;;;;;11.70;4.40;;;;;;;13.14;53.18;99902.35;105768;1294;58182;-75
2022/11/06 12:47:30;;;;;;;13.10;4.20;;;;;;;12.99;53.69;99895.81;105853;1299;60401;-75
2022/11/06 12:50:29;;;;;;;10.20;3.60;;;;;;;12.50;55.06;99897.36;105881;1294;71209;-74
2022/11/06 12:53:41;;;;;;;10.80;3.90;;;;;;;11.99;57.01;99900.55;105864;1290;67888;-75
2022/11/06 12:57:12;;;;;;;12.10;3.90;;;;;;;11.84;57.61;99903.17;105763;1293;72504;-76
2022/11/06 13:00:21;;;;;;;10.40;3.90;;;;;;;11.50;58.88;99904.80;105909;1292;59387;-76
2022/11/06 13:03:58;;;;;;;10.90;3.70;;;;;;;11.28;59.99;99907.55;103698;1291;1002795;-75
2022/11/06 13:07:36;;;;;;;9.40;3.50;;;;;;;11.03;61.27;99908.86;105898;1291;72491;-76
2022/11/06 13:10:50;;;;;;;11.80;3.40;;;;;;;10.78;62.50;99905.63;105869;1291;67597;-76
2022/11/06 13:14:18;;;;;;;7.90;3.30;;;;;;;10.64;63.10;99904.04;105881;1291;72776;-76
2022/11/06 13:17:26;;;;;;;9.10;3.00;;;;;;;10.51;64.02;99901.71;105823;1290;56758;-75
2022/11/06 13:20:46;;;;;;;9.40;3.70;;;;;;;10.38;64.91;99898.50;105917;1290;58688;-77
2022/11/06 13:23:49;;;;;;;8.20;2.90;;;;;;;10.30;65.43;99898.96;105899;1291;70524;-77
2022/11/06 13:26:52;;;;;;;9.90;3.40;;;;;;;10.19;66.07;99896.02;105883;1291;67267;-77
2022/11/06 13:29:45;;;;;;;7.60;2.70;;;;;;;10.12;66.39;99886.88;105910;1292;73375;-76
2022/11/06 13:32:41;;;;;;;10.60;3.80;;;;;;;10.05;66.93;99890.06;105645;1296;58591;-75
2022/11/06 13:35:48;;;;;;;8.70;3.40;;;;;;;10.01;66.85;99890.19;105906;1288;61397;-77
2022/11/06 13:39:35;;;;;;;8.80;2.80;;;;;;;9.93;67.51;99892.09;105886;1287;72207;-77
2022/11/06 13:42:35;;;;;;;9.20;3.30;;;;;;;9.82;68.39;99892.20;105262;1299;66302;-76